createdAt,value
2018-06-28T00:01:43.049Z,2.20
2018-06-28T00:04:11.794Z,2.30
2018-06-28T00:06:40.561Z,2.53
2018-06-28T00:09:09.875Z,2.47
2018-06-28T00:11:38.854Z,2.40
2018-06-28T00:14:07.594Z,2.70
2018-06-28T00:16:36.527Z,2.20
2018-06-28T00:19:05.145Z,2.43
2018-06-28T00:24:31.318Z,2.20
2018-06-28T00:27:00.094Z,2.37
2018-06-28T00:29:28.878Z,2.43
2018-06-28T00:31:57.670Z,2.53
2018-06-28T00:34:26.470Z,2.03
2018-06-28T00:36:55.249Z,2.33
2018-06-28T00:39:23.994Z,2.20
2018-06-28T00:41:52.757Z,2.00
2018-06-28T00:44:21.521Z,2.43
2018-06-28T00:46:50.465Z,2.20
2018-06-28T00:49:19.221Z,2.03
2018-06-28T00:51:47.990Z,2.10
2018-06-28T00:54:16.777Z,2.07
2018-06-28T00:56:45.762Z,2.20
2018-06-28T00:59:14.589Z,2.50
2018-06-28T01:01:43.406Z,2.30
2018-06-28T01:04:12.176Z,2.20
2018-06-28T01:06:40.764Z,2.73
2018-06-28T01:09:10.896Z,3.20
2018-06-28T01:11:40.294Z,3.70
2018-06-28T01:14:09.278Z,3.53
2018-06-28T01:16:38.100Z,4.20
2018-06-28T01:19:07.370Z,3.90
2018-06-28T01:21:35.941Z,4.63
2018-06-28T01:24:04.388Z,4.87
2018-06-28T01:26:33.230Z,5.37
2018-06-28T01:29:02.105Z,5.00
2018-06-28T01:31:30.669Z,5.37
2018-06-28T01:33:59.342Z,6.10
2018-06-28T01:36:28.109Z,5.30
2018-06-28T01:38:56.900Z,5.87
2018-06-28T01:41:31.885Z,5.60
2018-06-28T01:44:00.473Z,5.97
2018-06-28T01:46:29.162Z,5.90
2018-06-28T01:48:57.930Z,5.90
2018-06-28T01:51:26.701Z,5.93
2018-06-28T01:53:55.736Z,6.03
2018-06-28T01:56:24.326Z,5.43
2018-06-28T02:01:28.234Z,5.40
2018-06-28T02:03:56.990Z,5.57
2018-06-28T02:06:25.770Z,5.23
2018-06-28T02:08:54.546Z,5.67
2018-06-28T02:11:23.509Z,5.40
2018-06-28T02:13:52.271Z,5.70
2018-06-28T02:16:21.038Z,5.43
2018-06-28T02:18:49.818Z,5.80
2018-06-28T02:21:18.593Z,5.83
2018-06-28T02:23:47.378Z,6.27
2018-06-28T02:26:16.263Z,5.30
2018-06-28T02:28:45.020Z,6.60
2018-06-28T02:31:13.610Z,6.40
2018-06-28T02:33:42.269Z,6.40
2018-06-28T02:36:11.046Z,6.13
2018-06-28T02:38:39.854Z,6.13
2018-06-28T02:41:08.628Z,6.10
2018-06-28T02:43:37.385Z,5.60
2018-06-28T02:46:06.149Z,6.20
2018-06-28T02:48:34.918Z,6.23
2018-06-28T02:51:03.516Z,7.27
2018-06-28T02:53:32.198Z,6.83
2018-06-28T02:56:00.826Z,6.60
2018-06-28T02:58:29.525Z,6.37
2018-06-28T03:00:58.292Z,6.13
2018-06-28T03:03:27.062Z,7.17
2018-06-28T03:05:55.814Z,6.60
2018-06-28T03:08:24.581Z,6.80
2018-06-28T03:10:53.341Z,7.00
2018-06-28T03:13:22.113Z,7.03
2018-06-28T03:15:50.872Z,7.00
2018-06-28T03:18:19.633Z,7.60
2018-06-28T03:20:48.399Z,7.70
2018-06-28T03:23:17.166Z,7.67
2018-06-28T03:25:45.922Z,7.97
2018-06-28T03:28:14.698Z,9.03
2018-06-28T03:30:43.448Z,9.17
2018-06-28T03:33:12.342Z,8.67
2018-06-28T03:35:41.098Z,9.33
2018-06-28T03:38:10.397Z,10.83
2018-06-28T03:40:39.162Z,10.87
2018-06-28T03:43:07.947Z,12.30
2018-06-28T03:45:36.690Z,11.77
2018-06-28T03:48:05.457Z,13.07
2018-06-28T03:50:34.245Z,12.73
2018-06-28T03:53:03.034Z,12.93
2018-06-28T03:55:31.798Z,11.30
2018-06-28T03:58:00.362Z,12.20
2018-06-28T04:00:29.185Z,11.33
2018-06-28T04:02:58.177Z,11.93
2018-06-28T04:05:26.775Z,12.47
2018-06-28T04:07:55.493Z,11.57
2018-06-28T04:10:24.266Z,11.40
2018-06-28T04:12:53.047Z,11.53
2018-06-28T04:15:21.806Z,11.67
2018-06-28T04:17:50.734Z,11.67
2018-06-28T04:20:19.629Z,10.70
2018-06-28T04:22:48.422Z,10.47
2018-06-28T04:25:17.182Z,11.23
2018-06-28T04:27:45.972Z,11.17
2018-06-28T04:30:14.734Z,12.67
2018-06-28T04:32:43.522Z,11.60
2018-06-28T04:35:12.137Z,12.00
2018-06-28T04:37:40.866Z,12.30
2018-06-28T04:40:09.630Z,11.50
2018-06-28T04:42:38.404Z,13.43
2018-06-28T04:45:07.182Z,11.90
2018-06-28T04:47:35.959Z,11.83
2018-06-28T04:50:04.547Z,12.87
2018-06-28T04:52:33.274Z,13.87
2018-06-28T04:55:02.425Z,13.67
2018-06-28T04:57:31.107Z,11.27
2018-06-28T04:59:59.786Z,10.70
2018-06-28T05:02:28.568Z,12.00
2018-06-28T05:04:57.333Z,13.43
2018-06-28T05:07:26.107Z,14.07
2018-06-28T05:09:54.873Z,12.90
2018-06-28T05:12:23.633Z,12.10
2018-06-28T05:14:52.193Z,12.03
2018-06-28T05:17:20.923Z,10.40
2018-06-28T05:19:49.698Z,11.03
2018-06-28T05:22:18.470Z,11.37
2018-06-28T05:24:47.238Z,9.90
2018-06-28T05:27:16.005Z,10.40
2018-06-28T05:29:44.798Z,9.07
2018-06-28T05:32:13.584Z,9.53
2018-06-28T05:34:42.395Z,8.97
2018-06-28T05:37:11.130Z,7.87
2018-06-28T05:39:39.905Z,7.40
2018-06-28T05:42:08.806Z,6.73
2018-06-28T05:44:37.694Z,5.93
2018-06-28T05:47:06.561Z,6.27
2018-06-28T05:49:35.269Z,5.97
2018-06-28T05:52:03.861Z,5.70
2018-06-28T05:54:32.546Z,5.30
2018-06-28T05:57:01.519Z,4.73
2018-06-28T05:59:30.082Z,4.20
2018-06-28T06:01:58.753Z,3.70
2018-06-28T06:04:27.525Z,3.40
2018-06-28T06:06:56.273Z,3.47
2018-06-28T06:09:24.827Z,3.33
2018-06-28T06:11:53.506Z,2.93
2018-06-28T06:14:22.290Z,3.10
2018-06-28T06:16:51.078Z,2.70
2018-06-28T06:19:19.857Z,2.80
2018-06-28T06:21:48.646Z,2.30
2018-06-28T06:24:17.402Z,2.60
2018-06-28T06:26:46.186Z,2.97
2018-06-28T06:29:14.950Z,2.57
2018-06-28T06:31:43.815Z,2.30
2018-06-28T06:34:12.697Z,2.30
2018-06-28T06:36:41.398Z,2.33
2018-06-28T06:39:11.070Z,2.00
2018-06-28T06:41:39.866Z,2.40
2018-06-28T06:44:08.642Z,2.17
2018-06-28T06:46:37.414Z,1.90
2018-06-28T06:49:06.184Z,1.80
2018-06-28T06:51:34.937Z,1.93
2018-06-28T06:54:03.778Z,1.90
2018-06-28T06:56:32.542Z,2.40
2018-06-28T06:59:01.301Z,1.70
2018-06-28T07:01:30.066Z,1.60
2018-06-28T07:03:58.827Z,1.90
2018-06-28T07:06:27.580Z,1.73
2018-06-28T07:08:56.366Z,1.63
2018-06-28T07:11:25.126Z,1.70
2018-06-28T07:13:53.906Z,1.63
2018-06-28T07:16:22.641Z,1.57
2018-06-28T07:18:51.390Z,1.20
2018-06-28T07:21:20.145Z,1.60
2018-06-28T07:23:48.898Z,1.47
2018-06-28T07:26:17.694Z,1.40
2018-06-28T07:28:46.450Z,1.47
2018-06-28T07:31:15.399Z,1.37
2018-06-28T07:33:44.150Z,1.40
2018-06-28T07:36:12.946Z,1.37
2018-06-28T07:38:41.697Z,1.40
2018-06-28T07:41:10.461Z,1.50
2018-06-28T07:43:39.219Z,1.30
2018-06-28T07:46:07.997Z,1.30
2018-06-28T07:48:36.771Z,1.30
2018-06-28T07:51:05.550Z,1.03
2018-06-28T07:53:34.337Z,1.40
2018-06-28T07:56:03.093Z,1.50
2018-06-28T07:58:31.842Z,1.40
2018-06-28T08:01:00.642Z,1.57
2018-06-28T08:03:29.550Z,1.40
2018-06-28T08:05:58.097Z,1.30
2018-06-28T08:08:26.781Z,1.23
2018-06-28T08:10:55.917Z,1.60
2018-06-28T08:13:24.761Z,1.20
2018-06-28T08:15:53.541Z,1.53
2018-06-28T08:18:22.320Z,1.20
2018-06-28T08:20:51.153Z,1.30
2018-06-28T08:23:19.977Z,1.13
2018-06-28T08:25:48.762Z,1.30
2018-06-28T08:28:17.590Z,1.30
2018-06-28T08:30:46.327Z,1.30
2018-06-28T08:33:15.145Z,1.00
2018-06-28T08:35:44.108Z,1.40
2018-06-28T08:38:12.681Z,1.00
2018-06-28T08:40:41.376Z,1.00
2018-06-28T08:43:10.331Z,1.40
2018-06-28T08:45:39.089Z,1.00
2018-06-28T08:48:07.978Z,1.00
2018-06-28T08:50:37.046Z,1.10
2018-06-28T08:53:05.864Z,1.10
2018-06-28T08:55:34.658Z,1.00
2018-06-28T08:58:03.429Z,1.20
2018-06-28T09:00:32.374Z,1.30
2018-06-28T09:03:01.145Z,1.00
2018-06-28T09:05:29.909Z,1.17
2018-06-28T09:07:58.666Z,1.00
2018-06-28T09:10:27.209Z,1.00
2018-06-28T09:12:55.941Z,1.00
2018-06-28T09:15:24.576Z,0.93
2018-06-28T09:17:53.293Z,1.00
2018-06-28T09:20:22.097Z,1.07
2018-06-28T09:22:50.736Z,1.00
2018-06-28T09:25:19.370Z,0.90
2018-06-28T09:27:48.142Z,0.90
2018-06-28T09:30:17.041Z,1.00
2018-06-28T09:32:46.157Z,1.13
2018-06-28T09:35:14.933Z,1.20
2018-06-28T09:37:43.522Z,1.20
2018-06-28T09:40:12.601Z,1.00
2018-06-28T09:42:41.363Z,1.20
2018-06-28T09:45:10.122Z,1.03
2018-06-28T09:47:39.078Z,1.23
2018-06-28T09:50:07.866Z,1.20
2018-06-28T09:52:36.424Z,1.23
2018-06-28T09:55:05.113Z,1.93
2018-06-28T09:57:33.902Z,16.63
2018-06-28T10:00:02.692Z,1.47
2018-06-28T10:02:31.457Z,1.10
2018-06-28T10:05:00.230Z,1.20
2018-06-28T10:07:28.997Z,1.60
2018-06-28T10:09:58.178Z,1.20
2018-06-28T10:12:26.729Z,1.30
2018-06-28T10:14:55.434Z,1.27
2018-06-28T10:17:24.229Z,2.47
2018-06-28T10:19:52.806Z,0.90
2018-06-28T10:22:21.305Z,1.47
2018-06-28T10:24:49.977Z,0.80
2018-06-28T10:27:18.727Z,1.60
2018-06-28T10:29:47.445Z,0.97
2018-06-28T10:32:16.230Z,1.50
2018-06-28T10:34:44.981Z,0.93
2018-06-28T10:37:13.737Z,0.90
2018-06-28T10:39:42.489Z,0.80
2018-06-28T10:42:11.261Z,0.77
2018-06-28T10:44:40.047Z,0.80
2018-06-28T10:47:08.985Z,0.80
2018-06-28T10:49:37.515Z,1.10
2018-06-28T10:52:06.201Z,1.07
2018-06-28T10:54:34.957Z,1.33
2018-06-28T10:57:03.782Z,0.80
2018-06-28T10:59:32.593Z,1.20
2018-06-28T11:02:01.338Z,0.83
2018-06-28T11:04:30.090Z,0.80
2018-06-28T11:06:58.661Z,0.80
2018-06-28T11:09:27.149Z,0.80
2018-06-28T11:11:55.829Z,0.80
2018-06-28T11:14:24.612Z,0.90
2018-06-28T11:16:53.216Z,1.50
2018-06-28T11:19:21.912Z,0.93
2018-06-28T11:21:51.281Z,1.20
2018-06-28T11:24:20.086Z,1.20
2018-06-28T11:26:48.837Z,1.20
2018-06-28T11:29:17.610Z,0.90
2018-06-28T11:31:46.390Z,0.97
2018-06-28T11:34:15.149Z,1.00
2018-06-28T11:36:43.697Z,1.00
2018-06-28T11:39:12.492Z,1.00
2018-06-28T11:41:41.397Z,1.00
2018-06-28T11:44:10.452Z,0.80
2018-06-28T11:46:39.230Z,0.97
2018-06-28T11:49:07.994Z,0.90
2018-06-28T11:51:36.759Z,0.87
2018-06-28T11:54:05.517Z,0.90
2018-06-28T11:56:34.206Z,0.97
2018-06-28T11:59:03.111Z,1.00
2018-06-28T12:01:31.930Z,0.80
2018-06-28T12:04:00.476Z,1.00
2018-06-28T12:06:28.950Z,0.70
2018-06-28T12:08:57.650Z,0.70
2018-06-28T12:11:26.397Z,1.10
2018-06-28T12:13:55.189Z,0.80
2018-06-28T12:16:23.974Z,0.90
2018-06-28T12:18:52.768Z,0.80
2018-06-28T12:21:21.550Z,0.90
2018-06-28T12:23:50.321Z,0.90
2018-06-28T12:26:19.169Z,0.90
2018-06-28T12:28:47.941Z,0.97
2018-06-28T12:31:16.741Z,0.90
2018-06-28T12:33:45.528Z,0.90
2018-06-28T12:36:14.305Z,0.87
2018-06-28T12:38:43.138Z,1.00
2018-06-28T12:41:11.700Z,0.90
2018-06-28T12:43:40.365Z,0.87
2018-06-28T12:46:09.310Z,0.90
2018-06-28T12:48:38.081Z,0.87
2018-06-28T12:51:06.969Z,1.27
2018-06-28T12:53:35.730Z,0.80
2018-06-28T12:56:22.168Z,0.90
2018-06-28T12:58:52.293Z,0.80
2018-06-28T13:01:22.009Z,0.80
2018-06-28T13:03:50.756Z,0.83
2018-06-28T13:06:20.185Z,0.80
2018-06-28T13:08:49.398Z,1.20
2018-06-28T13:11:18.169Z,1.23
2018-06-28T13:13:46.734Z,0.90
2018-06-28T13:16:16.356Z,1.20
2018-06-28T13:18:46.124Z,0.93
2018-06-28T13:21:14.669Z,0.80
2018-06-28T13:23:43.365Z,0.97
2018-06-28T13:26:13.371Z,1.00
2018-06-28T13:28:42.654Z,0.80
2018-06-28T13:31:11.309Z,0.83
2018-06-28T13:33:40.172Z,0.97
2018-06-28T13:36:08.991Z,0.80
2018-06-28T13:38:37.797Z,1.03
2018-06-28T13:41:06.863Z,0.90
2018-06-28T13:43:35.518Z,5.63
2018-06-28T13:46:04.295Z,5.63
2018-06-28T13:48:32.861Z,1.40
2018-06-28T13:51:01.305Z,1.80
2018-06-28T13:53:30.281Z,4.03
2018-06-28T13:55:58.804Z,1.30
2018-06-28T13:58:27.457Z,1.60
2018-06-28T14:00:56.249Z,1.90
2018-06-28T14:03:25.324Z,1.03
2018-06-28T14:05:53.902Z,1.00
2018-06-28T14:08:22.646Z,1.70
2018-06-28T14:10:51.426Z,1.20
2018-06-28T14:13:20.181Z,1.07
2018-06-28T14:15:48.929Z,1.10
2018-06-28T14:18:17.535Z,1.00
2018-06-28T14:20:46.235Z,0.90
2018-06-28T14:23:14.968Z,0.97
2018-06-28T14:25:43.768Z,0.80
2018-06-28T14:28:12.506Z,0.90
2018-06-28T14:30:41.297Z,0.93
2018-06-28T14:33:10.082Z,1.43
2018-06-28T14:35:38.833Z,0.83
2018-06-28T14:38:07.376Z,0.90
2018-06-28T14:40:36.069Z,0.93
2018-06-28T14:43:04.795Z,1.10
2018-06-28T14:45:33.384Z,0.90
2018-06-28T14:48:02.041Z,0.80
2018-06-28T14:50:30.804Z,1.00
2018-06-28T14:52:59.532Z,0.80
2018-06-28T14:55:28.089Z,0.97
2018-06-28T14:57:56.745Z,0.87
2018-06-28T15:00:25.737Z,0.90
2018-06-28T15:02:54.549Z,0.93
2018-06-28T15:05:23.326Z,0.90
2018-06-28T15:07:52.065Z,1.00
2018-06-28T15:10:20.652Z,0.90
2018-06-28T15:12:49.311Z,0.97
2018-06-28T15:15:17.954Z,0.77
2018-06-28T15:17:46.609Z,1.20
2018-06-28T15:20:15.161Z,1.00
2018-06-28T15:22:43.832Z,0.90
2018-06-28T15:25:12.750Z,1.00
2018-06-28T15:27:41.546Z,0.80
2018-06-28T15:30:10.249Z,0.90
2018-06-28T15:32:39.229Z,0.90
2018-06-28T15:35:07.837Z,0.73
2018-06-28T15:37:36.520Z,1.50
2018-06-28T15:40:05.554Z,1.00
2018-06-28T15:42:34.519Z,1.10
2018-06-28T15:45:03.290Z,0.80
2018-06-28T15:47:32.054Z,0.90
2018-06-28T15:50:00.645Z,0.90
2018-06-28T15:52:29.444Z,0.80
2018-06-28T15:54:58.205Z,0.80
2018-06-28T15:57:27.051Z,1.03
2018-06-28T15:59:55.775Z,1.00
2018-06-28T16:02:24.593Z,0.83
2018-06-28T16:04:53.342Z,0.90
2018-06-28T16:07:22.088Z,1.10
2018-06-28T16:09:50.821Z,1.30
2018-06-28T16:12:19.670Z,1.20
2018-06-28T16:14:48.430Z,0.93
2018-06-28T16:17:17.203Z,0.90
2018-06-28T16:19:45.912Z,1.03
2018-06-28T16:22:14.662Z,1.10
2018-06-28T16:24:43.400Z,1.40
2018-06-28T16:27:12.473Z,1.10
2018-06-28T16:29:41.371Z,1.20
2018-06-28T16:32:10.097Z,1.23
2018-06-28T16:34:38.837Z,0.90
2018-06-28T16:37:07.621Z,0.93
2018-06-28T16:39:36.358Z,0.97
2018-06-28T16:42:06.130Z,0.80
2018-06-28T16:44:34.961Z,3.00
2018-06-28T16:47:03.726Z,2.83
2018-06-28T16:49:32.517Z,1.10
2018-06-28T16:52:01.266Z,1.30
2018-06-28T16:54:30.045Z,1.20
2018-06-28T16:56:58.798Z,1.13
2018-06-28T16:59:27.637Z,1.77
2018-06-28T17:01:56.381Z,16.70
2018-06-28T17:04:25.185Z,3.20
2018-06-28T17:06:53.888Z,70.43
2018-06-28T17:09:22.776Z,33.23
2018-06-28T17:11:51.546Z,5.37
2018-06-28T17:14:20.305Z,10.10
2018-06-28T17:16:49.153Z,15.43
2018-06-28T17:19:17.914Z,7.40
2018-06-28T17:21:46.721Z,9.87
2018-06-28T17:24:15.522Z,1.83
2018-06-28T17:26:44.294Z,1.40
2018-06-28T17:29:13.098Z,1.30
2018-06-28T17:31:42.295Z,1.17
2018-06-28T17:34:10.807Z,1.30
2018-06-28T17:36:39.493Z,1.20
2018-06-28T17:39:08.500Z,0.93
2018-06-28T17:41:37.222Z,1.00
2018-06-28T17:44:06.003Z,1.20
2018-06-28T17:46:34.759Z,1.20
2018-06-28T17:49:03.506Z,1.00
2018-06-28T17:51:32.305Z,1.10
2018-06-28T17:54:01.049Z,1.20
2018-06-28T17:56:29.896Z,1.30
2018-06-28T17:58:58.626Z,1.00
2018-06-28T18:01:27.389Z,1.00
2018-06-28T18:03:56.434Z,1.10
2018-06-28T18:06:25.250Z,1.00
2018-06-28T18:08:54.062Z,1.10
2018-06-28T18:11:22.797Z,1.30
2018-06-28T18:13:51.562Z,1.37
2018-06-28T18:16:20.305Z,1.20
2018-06-28T18:18:49.085Z,1.37
2018-06-28T18:21:19.018Z,1.50
2018-06-28T18:23:47.576Z,1.40
2018-06-28T18:26:16.281Z,1.17
2018-06-28T18:28:45.066Z,1.20
2018-06-28T18:31:13.829Z,1.30
2018-06-28T18:33:42.595Z,1.67
2018-06-28T18:36:11.343Z,1.30
2018-06-28T18:38:40.149Z,1.40
2018-06-28T18:41:09.701Z,1.50
2018-06-28T18:43:39.285Z,1.70
2018-06-28T18:46:13.013Z,1.40
2018-06-28T18:48:41.953Z,1.67
2018-06-28T18:51:10.717Z,1.40
2018-06-28T18:53:39.525Z,1.80
2018-06-28T18:56:08.379Z,1.50
2018-06-28T18:58:37.141Z,1.80
2018-06-28T19:01:05.899Z,1.63
2018-06-28T19:03:34.698Z,1.30
2018-06-28T19:06:03.502Z,1.70
2018-06-28T19:08:32.304Z,1.50
2018-06-28T19:11:01.001Z,1.33
2018-06-28T19:13:29.765Z,2.63
2018-06-28T19:16:03.882Z,2.60
2018-06-28T19:18:32.646Z,1.60
2018-06-28T19:21:08.312Z,1.80
2018-06-28T19:23:42.302Z,1.60
2018-06-28T19:26:11.057Z,1.70
2018-06-28T19:28:39.814Z,1.97
2018-06-28T19:31:13.772Z,1.70
2018-06-28T19:33:42.787Z,1.53
2018-06-28T19:36:11.545Z,1.57
2018-06-28T19:38:45.765Z,1.73
2018-06-28T19:41:19.998Z,1.80
2018-06-28T19:43:48.777Z,1.60
2018-06-28T19:46:17.541Z,1.83
2018-06-28T19:48:46.424Z,1.80
2018-06-28T19:51:20.513Z,1.90
2018-06-28T19:53:49.286Z,1.70
2018-06-28T19:56:18.045Z,2.13
2018-06-28T19:58:46.806Z,1.77
2018-06-28T20:01:21.221Z,1.67
2018-06-28T20:03:55.333Z,1.70
2018-06-28T20:06:24.153Z,1.90
2018-06-28T20:08:52.933Z,1.60
2018-06-28T20:11:21.690Z,1.90
2018-06-28T20:15:57.101Z,1.50
2018-06-28T20:18:31.085Z,2.03
2018-06-28T20:21:01.039Z,2.30
2018-06-28T20:23:29.920Z,2.30
2018-06-28T20:25:58.699Z,2.10
2018-06-28T20:28:32.773Z,2.50
2018-06-28T20:31:06.997Z,2.83
2018-06-28T20:33:41.105Z,3.03
2018-06-28T20:36:09.885Z,3.13
2018-06-28T20:38:38.646Z,3.17
2018-06-28T20:41:07.408Z,3.70
2018-06-28T20:43:36.177Z,3.33
2018-06-28T20:46:04.946Z,3.23
2018-06-28T20:48:33.726Z,3.50
2018-06-28T20:51:02.646Z,3.00
2018-06-28T20:53:31.317Z,3.57
2018-06-28T20:56:00.098Z,3.10
2018-06-28T20:58:28.880Z,3.17
2018-06-28T21:00:57.633Z,3.10
2018-06-28T21:03:26.176Z,2.90
2018-06-28T21:05:54.954Z,2.90
2018-06-28T21:08:23.626Z,2.87
2018-06-28T21:10:52.389Z,3.17
2018-06-28T21:13:21.153Z,3.20
2018-06-28T21:15:49.713Z,2.40
2018-06-28T21:18:18.394Z,2.50
2018-06-28T21:20:47.214Z,2.53
2018-06-28T21:23:15.981Z,2.83
2018-06-28T21:25:44.801Z,2.90
2018-06-28T21:28:13.701Z,2.83
2018-06-28T21:30:42.534Z,2.80
2018-06-28T21:33:11.338Z,2.37
2018-06-28T21:35:40.137Z,2.60
2018-06-28T21:38:08.901Z,2.50
2018-06-28T21:40:37.692Z,2.87
2018-06-28T21:43:06.458Z,2.80
2018-06-28T21:45:35.367Z,2.80
2018-06-28T21:48:04.185Z,3.07
2018-06-28T21:50:33.101Z,2.90
2018-06-28T21:53:01.856Z,3.17
2018-06-28T21:55:30.766Z,2.80
2018-06-28T21:57:59.517Z,3.03
2018-06-28T22:00:32.601Z,3.10
2018-06-28T22:03:03.489Z,2.57
2018-06-28T22:05:32.584Z,2.50
2018-06-28T22:08:01.540Z,3.03
2018-06-28T22:10:30.162Z,2.90
2018-06-28T22:12:58.902Z,2.70
2018-06-28T22:15:28.973Z,2.70
2018-06-28T22:17:59.941Z,2.33
2018-06-28T22:20:29.634Z,3.10
2018-06-28T22:22:58.502Z,2.47
2018-06-28T22:25:28.264Z,2.30
2018-06-28T22:27:57.001Z,2.77
2018-06-28T22:30:25.859Z,2.43
2018-06-28T22:32:54.549Z,1.97
2018-06-28T22:35:23.345Z,2.60
2018-06-28T22:37:52.161Z,2.20
2018-06-28T22:40:20.749Z,2.20
2018-06-28T22:42:49.414Z,2.37
2018-06-28T22:45:18.185Z,2.30
2018-06-28T22:47:46.981Z,2.40
2018-06-28T22:50:15.757Z,2.30
2018-06-28T22:52:44.525Z,2.63
2018-06-28T22:55:13.325Z,2.63
2018-06-28T22:57:42.115Z,2.60
2018-06-28T23:00:10.897Z,2.63
2018-06-28T23:02:39.723Z,2.23
2018-06-28T23:05:08.496Z,2.40
2018-06-28T23:07:37.452Z,2.57
2018-06-28T23:10:05.973Z,2.27
2018-06-28T23:12:34.670Z,1.90
2018-06-28T23:15:03.670Z,1.80
2018-06-28T23:17:32.434Z,2.47
2018-06-28T23:20:01.221Z,2.10
2018-06-28T23:22:48.497Z,2.40
2018-06-28T23:25:17.274Z,2.23
2018-06-28T23:27:46.717Z,2.00
2018-06-28T23:30:15.666Z,2.20
2018-06-28T23:32:44.569Z,2.27
2018-06-28T23:35:13.276Z,2.70
2018-06-28T23:37:42.034Z,2.40
2018-06-28T23:40:10.577Z,2.30
2018-06-28T23:42:39.926Z,2.20
2018-06-28T23:45:09.557Z,2.10
2018-06-28T23:47:38.195Z,2.13
2018-06-28T23:50:08.017Z,2.17
2018-06-28T23:52:36.577Z,2.50
2018-06-28T23:55:05.828Z,2.17
2018-06-28T23:57:34.806Z,2.60
